createdAt,value
2023-04-10T00:01:35.763Z,100.00
2023-04-10T00:04:05.343Z,100.00
2023-04-10T00:06:36.466Z,100.00
2023-04-10T00:09:05.683Z,100.00
2023-04-10T00:11:34.076Z,100.00
2023-04-10T00:14:02.567Z,100.00
2023-04-10T00:16:30.445Z,100.00
2023-04-10T00:18:58.484Z,100.00
2023-04-10T00:21:27.282Z,100.00
2023-04-10T00:23:57.891Z,100.00
2023-04-10T00:26:26.926Z,99.61
2023-04-10T00:28:55.137Z,100.00
2023-04-10T00:31:23.454Z,100.00
2023-04-10T00:33:51.595Z,100.00
2023-04-10T00:36:19.890Z,100.00
2023-04-10T00:38:48.305Z,100.00
2023-04-10T00:41:16.974Z,100.00
2023-04-10T00:43:45.908Z,100.00
2023-04-10T00:46:14.049Z,100.00
2023-04-10T00:48:42.179Z,100.00
2023-04-10T00:51:10.507Z,100.00
2023-04-10T00:53:38.557Z,100.00
2023-04-10T00:56:07.261Z,100.00
2023-04-10T00:58:35.511Z,100.00
2023-04-10T01:01:04.139Z,100.00
2023-04-10T01:03:33.194Z,100.00
2023-04-10T01:06:18.578Z,100.00
2023-04-10T01:09:04.977Z,100.00
2023-04-10T01:11:53.503Z,100.00
2023-04-10T01:14:58.502Z,100.00
2023-04-10T01:17:32.150Z,100.00
2023-04-10T01:20:21.998Z,100.00
2023-04-10T01:23:09.722Z,100.00
2023-04-10T01:25:40.877Z,100.00
2023-04-10T01:28:19.855Z,100.00
2023-04-10T01:30:48.242Z,100.00
2023-04-10T01:33:18.572Z,100.00
2023-04-10T01:35:53.349Z,100.00
2023-04-10T01:38:22.351Z,100.00
2023-04-10T01:40:52.957Z,100.00
2023-04-10T01:43:27.754Z,100.00
2023-04-10T01:45:55.986Z,100.00
2023-04-10T01:48:24.192Z,100.00
2023-04-10T01:50:52.727Z,100.00
2023-04-10T01:53:22.816Z,100.00
2023-04-10T01:55:51.682Z,100.00
2023-04-10T01:58:20.966Z,100.00
2023-04-10T02:00:49.105Z,100.00
2023-04-10T02:03:18.294Z,100.00
2023-04-10T02:06:08.885Z,100.00
2023-04-10T02:08:39.889Z,100.00
2023-04-10T02:11:26.285Z,100.00
2023-04-10T02:13:54.548Z,100.00
2023-04-10T02:16:23.244Z,100.00
2023-04-10T02:18:52.646Z,100.00
2023-04-10T02:21:20.772Z,100.00
2023-04-10T02:23:48.845Z,100.00
2023-04-10T02:26:16.957Z,100.00
2023-04-10T02:28:44.966Z,100.00
2023-04-10T02:31:12.939Z,100.00
2023-04-10T02:33:41.263Z,100.00
2023-04-10T02:36:09.524Z,100.00
2023-04-10T02:38:37.478Z,100.00
2023-04-10T02:41:06.252Z,100.00
2023-04-10T02:43:37.083Z,100.00
2023-04-10T02:46:08.939Z,100.00
2023-04-10T02:48:39.223Z,100.00
2023-04-10T02:51:08.172Z,100.00
2023-04-10T02:53:36.921Z,100.00
2023-04-10T02:56:06.954Z,100.00
2023-04-10T02:58:36.078Z,100.00
2023-04-10T03:01:05.599Z,100.00
2023-04-10T03:03:40.646Z,100.00
2023-04-10T03:06:09.455Z,100.00
2023-04-10T03:08:37.636Z,100.00
2023-04-10T03:11:07.842Z,100.00
2023-04-10T03:13:35.922Z,100.00
2023-04-10T03:16:04.152Z,100.00
2023-04-10T03:18:34.344Z,100.00
2023-04-10T03:21:02.808Z,100.00
2023-04-10T03:23:30.768Z,100.00
2023-04-10T03:25:58.805Z,100.00
2023-04-10T03:28:29.787Z,100.00
2023-04-10T03:30:57.830Z,100.00
2023-04-10T03:33:25.992Z,100.00
2023-04-10T03:35:54.076Z,100.00
2023-04-10T03:38:22.144Z,100.00
2023-04-10T03:40:50.441Z,100.00
2023-04-10T03:43:20.795Z,100.00
2023-04-10T03:45:48.976Z,100.00
2023-04-10T03:48:18.519Z,100.00
2023-04-10T03:50:47.698Z,100.00
2023-04-10T03:53:17.281Z,100.00
2023-04-10T03:55:46.284Z,100.00
2023-04-10T03:58:16.222Z,100.00
2023-04-10T04:00:44.186Z,100.00
2023-04-10T04:03:16.973Z,100.00
2023-04-10T04:05:56.452Z,100.00
2023-04-10T04:08:31.798Z,100.00
2023-04-10T04:11:22.190Z,100.00
2023-04-10T04:13:59.928Z,100.00
2023-04-10T04:16:43.676Z,100.00
2023-04-10T04:19:27.864Z,100.00
2023-04-10T04:22:28.387Z,100.00
2023-04-10T04:25:12.316Z,100.00
2023-04-10T04:27:55.261Z,100.00
2023-04-10T04:30:48.164Z,100.00
2023-04-10T04:33:26.777Z,100.00
2023-04-10T04:36:10.476Z,100.00
2023-04-10T04:38:44.060Z,100.00
2023-04-10T04:41:12.098Z,100.00
2023-04-10T04:44:01.284Z,100.00
2023-04-10T04:46:50.110Z,100.00
2023-04-10T04:49:27.206Z,100.00
2023-04-10T04:52:28.572Z,100.00
2023-04-10T04:55:19.472Z,100.00
2023-04-10T04:58:15.644Z,100.00
2023-04-10T05:00:55.220Z,100.00
2023-04-10T05:03:42.532Z,100.00
2023-04-10T05:06:38.926Z,100.00
2023-04-10T05:09:26.836Z,100.00
2023-04-10T05:12:07.782Z,100.00
2023-04-10T05:14:47.461Z,100.00
2023-04-10T05:17:31.780Z,100.00
2023-04-10T05:20:38.536Z,100.00
2023-04-10T05:23:21.427Z,100.00
2023-04-10T05:26:30.806Z,100.00
2023-04-10T05:29:25.516Z,100.00
2023-04-10T05:32:11.546Z,100.00
2023-04-10T05:35:04.029Z,100.00
2023-04-10T05:37:41.781Z,100.00
2023-04-10T05:40:28.379Z,100.00
2023-04-10T05:43:17.373Z,100.00
2023-04-10T05:46:18.593Z,100.00
2023-04-10T05:48:48.476Z,100.00
2023-04-10T05:51:37.578Z,100.00
2023-04-10T05:54:21.695Z,100.00
2023-04-10T05:57:08.357Z,100.00
2023-04-10T05:59:55.499Z,100.00
2023-04-10T06:02:42.830Z,100.00
2023-04-10T06:05:17.286Z,100.00
2023-04-10T06:07:46.587Z,100.00
2023-04-10T06:10:16.090Z,100.00
2023-04-10T06:12:45.685Z,100.00
2023-04-10T06:15:15.026Z,100.00
2023-04-10T06:17:44.471Z,100.00
2023-04-10T06:20:12.822Z,100.00
2023-04-10T06:22:41.616Z,100.00
2023-04-10T06:25:10.782Z,100.00
2023-04-10T06:27:39.178Z,100.00
2023-04-10T06:30:10.372Z,100.00
2023-04-10T06:32:39.324Z,100.00
2023-04-10T06:35:07.742Z,100.00
2023-04-10T06:37:35.855Z,100.00
2023-04-10T06:40:10.024Z,100.00
2023-04-10T06:42:39.541Z,100.00
2023-04-10T06:45:11.364Z,100.00
2023-04-10T06:47:47.449Z,100.00
2023-04-10T06:50:16.001Z,100.00
2023-04-10T06:53:02.128Z,99.59
2023-04-10T06:55:44.319Z,99.04
2023-04-10T06:58:20.014Z,98.11
2023-04-10T07:00:49.920Z,96.42
2023-04-10T07:03:18.916Z,93.13
2023-04-10T07:05:47.657Z,90.38
2023-04-10T07:08:16.331Z,88.73
2023-04-10T07:10:45.966Z,79.83
2023-04-10T07:13:16.574Z,79.51
2023-04-10T07:15:46.523Z,74.64
2023-04-10T07:18:19.116Z,72.61
2023-04-10T07:20:59.956Z,71.05
2023-04-10T07:23:29.727Z,67.87
2023-04-10T07:25:58.421Z,68.34
2023-04-10T07:28:29.390Z,68.12
2023-04-10T07:30:57.325Z,66.96
2023-04-10T07:33:26.417Z,68.71
2023-04-10T07:35:54.668Z,68.34
2023-04-10T07:38:25.159Z,66.17
2023-04-10T07:40:59.216Z,65.23
2023-04-10T07:43:30.856Z,65.10
2023-04-10T07:45:59.908Z,64.56
2023-04-10T07:48:27.908Z,64.04
2023-04-10T07:51:07.570Z,63.48
2023-04-10T07:53:36.974Z,62.83
2023-04-10T07:56:20.889Z,61.61
2023-04-10T07:59:08.620Z,61.87
2023-04-10T08:01:41.552Z,60.69
2023-04-10T08:04:16.090Z,60.62
2023-04-10T08:06:48.194Z,60.87
2023-04-10T08:09:20.937Z,56.95
2023-04-10T08:11:52.406Z,57.14
2023-04-10T08:14:22.563Z,57.53
2023-04-10T08:16:51.630Z,55.84
2023-04-10T08:19:31.535Z,54.65
2023-04-10T08:22:00.683Z,54.11
2023-04-10T08:24:29.057Z,54.72
2023-04-10T08:26:57.174Z,54.79
2023-04-10T08:29:25.423Z,52.38
2023-04-10T08:32:03.477Z,50.78
2023-04-10T08:34:40.447Z,49.85
2023-04-10T08:37:15.967Z,48.48
2023-04-10T08:39:49.304Z,49.10
2023-04-10T08:42:34.741Z,46.30
2023-04-10T08:45:09.784Z,44.98
2023-04-10T08:47:48.472Z,45.59
2023-04-10T08:50:21.614Z,45.46
2023-04-10T08:52:57.260Z,44.80
2023-04-10T08:55:40.597Z,45.43
2023-04-10T08:58:15.276Z,44.47
2023-04-10T09:00:47.658Z,43.65
2023-04-10T09:03:17.547Z,43.32
2023-04-10T09:05:46.094Z,42.41
2023-04-10T09:08:16.583Z,41.37
2023-04-10T09:10:44.860Z,42.79
2023-04-10T09:13:13.090Z,42.30
2023-04-10T09:16:01.485Z,40.94
2023-04-10T09:18:49.999Z,41.63
2023-04-10T09:21:23.719Z,42.64
2023-04-10T09:24:00.001Z,43.68
2023-04-10T09:26:33.155Z,41.82
2023-04-10T09:29:05.948Z,41.41
2023-04-10T09:31:39.610Z,42.29
2023-04-10T09:34:23.096Z,41.66
2023-04-10T09:36:57.275Z,42.52
2023-04-10T09:39:43.543Z,42.34
2023-04-10T09:42:12.579Z,41.14
2023-04-10T09:44:41.847Z,39.30
2023-04-10T09:47:20.995Z,40.64
2023-04-10T09:49:52.845Z,41.44
2023-04-10T09:52:31.274Z,42.03
2023-04-10T09:55:05.564Z,42.38
2023-04-10T09:57:37.332Z,41.67
2023-04-10T10:00:07.172Z,42.27
2023-04-10T10:02:37.412Z,40.85
2023-04-10T10:05:06.352Z,40.77
2023-04-10T10:07:34.459Z,41.19
2023-04-10T10:10:03.598Z,42.47
2023-04-10T10:12:36.227Z,43.00
2023-04-10T10:15:14.479Z,42.50
2023-04-10T10:17:47.884Z,42.98
2023-04-10T10:20:18.237Z,43.11
2023-04-10T10:22:48.841Z,42.11
2023-04-10T10:25:17.130Z,43.04
2023-04-10T10:27:45.202Z,42.99
2023-04-10T10:30:28.067Z,42.81
2023-04-10T10:32:59.121Z,42.32
2023-04-10T10:35:29.828Z,43.72
2023-04-10T10:38:01.442Z,44.02
2023-04-10T10:40:35.532Z,42.40
2023-04-10T10:43:34.549Z,43.71
2023-04-10T10:46:19.326Z,43.14
2023-04-10T10:48:58.283Z,44.29
2023-04-10T10:54:59.512Z,44.63
2023-04-10T10:57:49.547Z,43.49
2023-04-10T11:00:22.549Z,44.06
2023-04-10T11:03:09.204Z,43.70
2023-04-10T11:06:03.872Z,43.44
2023-04-10T11:08:45.362Z,42.19
2023-04-10T11:11:16.401Z,41.46
2023-04-10T11:13:52.733Z,42.49
2023-04-10T11:16:21.503Z,42.24
2023-04-10T11:18:59.347Z,42.44
2023-04-10T11:21:34.689Z,41.78
2023-04-10T11:24:04.137Z,40.97
2023-04-10T11:26:35.250Z,41.99
2023-04-10T11:29:07.063Z,41.45
2023-04-10T11:31:37.670Z,42.03
2023-04-10T11:34:07.979Z,41.86
2023-04-10T11:36:41.659Z,41.03
2023-04-10T11:39:13.405Z,41.72
2023-04-10T11:41:43.293Z,43.20
2023-04-10T11:44:18.890Z,43.31
2023-04-10T11:46:51.121Z,42.92
2023-04-10T11:49:20.755Z,43.29
2023-04-10T11:51:53.198Z,42.70
2023-04-10T11:54:26.279Z,43.12
2023-04-10T11:56:59.362Z,42.78
2023-04-10T11:59:27.498Z,42.75
2023-04-10T12:02:06.092Z,42.35
2023-04-10T12:04:34.649Z,42.04
2023-04-10T12:07:03.110Z,42.03
2023-04-10T12:09:36.684Z,41.49
2023-04-10T12:12:08.375Z,41.76
2023-04-10T12:14:42.702Z,41.78
2023-04-10T12:17:11.567Z,41.51
2023-04-10T12:19:39.856Z,40.91
2023-04-10T12:22:08.146Z,40.76
2023-04-10T12:24:45.371Z,40.53
2023-04-10T12:27:17.834Z,40.03
2023-04-10T12:29:46.735Z,39.77
2023-04-10T12:32:14.876Z,40.59
2023-04-10T12:34:43.025Z,41.97
2023-04-10T12:37:12.989Z,42.00
2023-04-10T12:39:41.434Z,42.27
2023-04-10T12:42:17.133Z,41.27
2023-04-10T12:44:59.083Z,41.80
2023-04-10T12:47:28.518Z,42.05
2023-04-10T12:50:04.542Z,41.19
2023-04-10T12:52:33.427Z,41.14
2023-04-10T12:55:14.101Z,41.18
2023-04-10T12:57:51.926Z,41.70
2023-04-10T13:00:21.440Z,41.28
2023-04-10T13:02:49.704Z,40.48
2023-04-10T13:05:18.693Z,40.70
2023-04-10T13:07:46.657Z,41.23
2023-04-10T13:10:15.121Z,40.89
2023-04-10T13:12:45.327Z,39.92
2023-04-10T13:15:13.520Z,39.74
2023-04-10T13:17:42.133Z,39.80
2023-04-10T13:20:11.461Z,39.99
2023-04-10T13:22:39.800Z,40.12
2023-04-10T13:25:08.089Z,40.66
2023-04-10T13:27:36.203Z,40.92
2023-04-10T13:30:04.466Z,40.70
2023-04-10T13:32:34.501Z,41.11
2023-04-10T13:35:02.729Z,41.54
2023-04-10T13:40:26.336Z,41.85
2023-04-10T13:42:55.402Z,43.42
2023-04-10T13:45:23.743Z,44.12
2023-04-10T13:47:54.335Z,44.14
2023-04-10T13:50:22.451Z,43.97
2023-04-10T13:52:52.320Z,43.89
2023-04-10T13:55:22.040Z,43.39
2023-04-10T13:57:51.804Z,42.60
2023-04-10T14:00:19.754Z,42.21
2023-04-10T14:02:47.899Z,41.58
2023-04-10T14:05:17.427Z,41.31
2023-04-10T14:07:45.557Z,40.98
2023-04-10T14:10:13.611Z,40.60
2023-04-10T14:12:41.677Z,40.71
2023-04-10T14:15:10.188Z,40.30
2023-04-10T14:17:38.992Z,40.10
2023-04-10T14:20:07.942Z,40.57
2023-04-10T14:22:36.227Z,41.39
2023-04-10T14:25:12.897Z,41.80
2023-04-10T14:27:45.780Z,42.20
2023-04-10T14:30:14.031Z,42.71
2023-04-10T14:32:42.797Z,42.58
2023-04-10T14:35:11.669Z,42.75
2023-04-10T14:37:40.052Z,43.13
2023-04-10T14:40:09.383Z,42.85
2023-04-10T14:42:37.428Z,42.22
2023-04-10T14:45:06.713Z,41.60
2023-04-10T14:47:36.377Z,41.43
2023-04-10T14:50:04.952Z,42.05
2023-04-10T14:52:37.370Z,42.25
2023-04-10T14:55:05.956Z,42.10
2023-04-10T14:57:34.671Z,43.43
2023-04-10T15:00:07.117Z,43.93
2023-04-10T15:02:35.183Z,45.32
2023-04-10T15:05:03.532Z,46.50
2023-04-10T15:07:31.722Z,47.46
2023-04-10T15:10:00.018Z,48.62
2023-04-10T15:12:28.115Z,49.24
2023-04-10T15:14:56.285Z,51.12
2023-04-10T15:17:24.530Z,51.21
2023-04-10T15:19:52.564Z,51.08
2023-04-10T15:22:20.742Z,50.89
2023-04-10T15:24:50.930Z,52.15
2023-04-10T15:27:20.441Z,53.16
2023-04-10T15:29:48.470Z,52.69
2023-04-10T15:32:16.612Z,52.88
2023-04-10T15:34:44.920Z,53.89
2023-04-10T15:37:13.182Z,53.88
2023-04-10T15:39:41.649Z,54.19
2023-04-10T15:42:09.938Z,54.06
2023-04-10T15:44:38.518Z,53.57
2023-04-10T15:47:07.918Z,54.13
2023-04-10T15:49:38.496Z,54.33
2023-04-10T15:52:07.237Z,55.05
2023-04-10T15:54:35.604Z,55.41
2023-04-10T15:57:05.229Z,56.10
2023-04-10T15:59:33.790Z,56.02
2023-04-10T16:02:02.271Z,56.71
2023-04-10T16:04:31.311Z,56.68
2023-04-10T16:07:00.958Z,58.29
2023-04-10T16:09:29.532Z,57.66
2023-04-10T16:12:00.157Z,57.73
2023-04-10T16:14:29.716Z,58.78
2023-04-10T16:17:00.154Z,58.92
2023-04-10T16:19:31.859Z,59.30
2023-04-10T16:22:00.243Z,59.30
2023-04-10T16:24:28.536Z,58.50
2023-04-10T16:26:56.938Z,57.91
2023-04-10T16:29:25.082Z,57.90
2023-04-10T16:31:54.399Z,61.07
2023-04-10T16:34:22.622Z,61.33
2023-04-10T16:36:50.879Z,61.31
2023-04-10T16:39:20.091Z,61.09
2023-04-10T16:41:48.810Z,61.15
2023-04-10T16:44:17.199Z,62.23
2023-04-10T16:46:46.146Z,60.81
2023-04-10T16:49:14.382Z,60.69
2023-04-10T16:51:42.950Z,61.05
2023-04-10T16:54:11.097Z,61.65
2023-04-10T16:56:39.410Z,63.39
2023-04-10T16:59:08.900Z,64.17
2023-04-10T17:01:40.005Z,64.79
2023-04-10T17:04:09.600Z,64.55
2023-04-10T17:06:37.844Z,66.02
2023-04-10T17:09:06.147Z,65.02
2023-04-10T17:11:34.173Z,67.31
2023-04-10T17:14:03.302Z,67.68
2023-04-10T17:16:31.587Z,66.20
2023-04-10T17:18:59.811Z,64.18
2023-04-10T17:21:28.533Z,64.53
2023-04-10T17:23:58.566Z,64.21
2023-04-10T17:26:26.958Z,65.18
2023-04-10T17:28:55.829Z,71.33
2023-04-10T17:31:24.496Z,73.80
2023-04-10T17:33:55.766Z,74.12
2023-04-10T17:36:24.671Z,76.49
2023-04-10T17:38:54.143Z,77.66
2023-04-10T17:41:23.419Z,80.64
2023-04-10T17:43:54.571Z,74.95
2023-04-10T17:46:24.989Z,80.38
2023-04-10T17:48:53.489Z,77.53
2023-04-10T17:51:22.057Z,77.38
2023-04-10T17:53:50.125Z,74.36
2023-04-10T17:56:19.908Z,77.04
2023-04-10T17:58:48.062Z,71.86
2023-04-10T18:01:29.957Z,71.75
2023-04-10T18:03:59.403Z,79.02
2023-04-10T18:06:27.761Z,78.90
2023-04-10T18:08:57.387Z,81.27
2023-04-10T18:11:26.419Z,75.53
2023-04-10T18:13:54.842Z,78.88
2023-04-10T18:16:25.357Z,81.85
2023-04-10T18:18:54.084Z,77.62
2023-04-10T18:21:22.541Z,75.35
2023-04-10T18:23:50.889Z,87.42
2023-04-10T18:26:21.147Z,92.83
2023-04-10T18:28:49.314Z,78.83
2023-04-10T18:31:19.160Z,75.75
2023-04-10T18:33:53.361Z,85.43
2023-04-10T18:36:32.370Z,79.54
2023-04-10T18:39:00.392Z,80.87
2023-04-10T18:41:28.743Z,89.35
2023-04-10T18:44:04.760Z,82.72
2023-04-10T18:46:34.208Z,94.81
2023-04-10T18:49:03.535Z,91.38
2023-04-10T18:51:34.991Z,83.89
2023-04-10T18:54:04.884Z,83.04
2023-04-10T18:56:35.730Z,78.86
2023-04-10T18:59:04.527Z,86.60
2023-04-10T19:01:34.082Z,85.81
2023-04-10T19:04:02.897Z,91.26
2023-04-10T19:06:33.348Z,95.61
2023-04-10T19:09:01.784Z,95.76
2023-04-10T19:11:29.887Z,85.28
2023-04-10T19:13:58.159Z,96.68
2023-04-10T19:16:26.511Z,100.00
2023-04-10T19:18:55.370Z,100.00
2023-04-10T19:21:25.884Z,100.00
2023-04-10T19:23:54.114Z,100.00
2023-04-10T19:26:23.742Z,100.00
2023-04-10T19:28:51.979Z,100.00
2023-04-10T19:31:23.752Z,100.00
2023-04-10T19:33:52.058Z,99.90
2023-04-10T19:36:20.827Z,99.87
2023-04-10T19:38:51.334Z,100.00
2023-04-10T19:41:20.423Z,100.00
2023-04-10T19:43:48.866Z,100.00
2023-04-10T19:46:18.141Z,100.00
2023-04-10T19:48:48.844Z,100.00
2023-04-10T19:51:16.977Z,100.00
2023-04-10T19:53:45.070Z,100.00
2023-04-10T19:56:13.035Z,100.00
2023-04-10T19:58:42.159Z,100.00
2023-04-10T20:01:12.818Z,100.00
2023-04-10T20:03:41.059Z,99.86
2023-04-10T20:06:10.291Z,100.00
2023-04-10T20:08:40.819Z,100.00
2023-04-10T20:11:09.725Z,100.00
2023-04-10T20:13:39.392Z,100.00
2023-04-10T20:16:08.191Z,100.00
2023-04-10T20:18:36.419Z,100.00
2023-04-10T20:21:05.014Z,100.00
2023-04-10T20:23:33.085Z,100.00
2023-04-10T20:26:02.780Z,100.00
2023-04-10T20:28:31.924Z,100.00
2023-04-10T20:30:59.964Z,100.00
2023-04-10T20:33:27.939Z,100.00
2023-04-10T20:35:58.972Z,100.00
2023-04-10T20:38:26.963Z,100.00
2023-04-10T20:40:54.880Z,100.00
2023-04-10T20:43:23.107Z,100.00
2023-04-10T20:45:51.476Z,100.00
2023-04-10T20:48:19.633Z,100.00
2023-04-10T20:50:49.380Z,100.00
2023-04-10T20:53:17.526Z,100.00
2023-04-10T20:55:45.726Z,100.00
2023-04-10T20:58:13.773Z,100.00
2023-04-10T21:00:42.008Z,100.00
2023-04-10T21:03:10.248Z,100.00
2023-04-10T21:05:42.831Z,100.00
2023-04-10T21:08:11.779Z,100.00
2023-04-10T21:10:49.832Z,100.00
2023-04-10T21:13:17.861Z,100.00
2023-04-10T21:15:45.847Z,100.00
2023-04-10T21:18:13.854Z,100.00
2023-04-10T21:20:43.527Z,100.00
2023-04-10T21:23:11.496Z,100.00
2023-04-10T21:25:39.465Z,100.00
2023-04-10T21:28:07.407Z,100.00
2023-04-10T21:30:37.026Z,100.00
2023-04-10T21:33:05.055Z,100.00
2023-04-10T21:35:33.086Z,100.00
2023-04-10T21:38:02.290Z,100.00
2023-04-10T21:40:34.707Z,100.00
2023-04-10T21:43:03.461Z,100.00
2023-04-10T21:45:31.889Z,100.00
2023-04-10T21:48:00.510Z,100.00
2023-04-10T21:50:31.128Z,100.00
2023-04-10T21:53:00.281Z,100.00
2023-04-10T21:55:28.328Z,100.00
2023-04-10T21:57:56.749Z,100.00
2023-04-10T22:00:24.985Z,100.00
2023-04-10T22:02:55.144Z,100.00
2023-04-10T22:05:24.628Z,100.00
2023-04-10T22:07:52.639Z,100.00
2023-04-10T22:10:20.666Z,100.00
2023-04-10T22:12:49.202Z,100.00
2023-04-10T22:15:18.902Z,100.00
2023-04-10T22:17:46.996Z,100.00
2023-04-10T22:20:15.800Z,100.00
2023-04-10T22:22:44.009Z,100.00
2023-04-10T22:25:12.203Z,100.00
2023-04-10T22:27:40.297Z,100.00
2023-04-10T22:30:09.960Z,100.00
2023-04-10T22:32:38.335Z,100.00
2023-04-10T22:35:07.852Z,100.00
2023-04-10T22:37:35.925Z,100.00
2023-04-10T22:40:04.994Z,100.00
2023-04-10T22:42:33.350Z,100.00
2023-04-10T22:45:01.380Z,100.00
2023-04-10T22:47:29.381Z,100.00
2023-04-10T22:49:57.368Z,100.00
2023-04-10T22:52:25.385Z,100.00
2023-04-10T22:54:53.403Z,100.00
2023-04-10T22:57:21.517Z,100.00
2023-04-10T22:59:49.698Z,100.00
2023-04-10T23:02:17.798Z,100.00
2023-04-10T23:04:46.094Z,100.00
2023-04-10T23:07:14.283Z,100.00
2023-04-10T23:09:42.233Z,100.00
2023-04-10T23:12:10.220Z,100.00
2023-04-10T23:14:38.284Z,100.00
2023-04-10T23:17:06.306Z,100.00
2023-04-10T23:19:34.279Z,100.00
2023-04-10T23:22:02.210Z,100.00
2023-04-10T23:24:30.324Z,100.00
2023-04-10T23:26:58.239Z,100.00
2023-04-10T23:29:26.133Z,100.00
2023-04-10T23:31:54.138Z,100.00
2023-04-10T23:34:22.079Z,100.00
2023-04-10T23:36:50.025Z,100.00
2023-04-10T23:39:17.959Z,100.00
2023-04-10T23:41:45.966Z,100.00
2023-04-10T23:44:13.884Z,100.00
2023-04-10T23:46:42.004Z,100.00
2023-04-10T23:49:10.026Z,100.00
2023-04-10T23:51:38.011Z,100.00
2023-04-10T23:54:06.528Z,100.00
2023-04-10T23:56:34.506Z,100.00
2023-04-10T23:59:02.411Z,100.00
